Time;durP1;ratioP1;P1;durP2;ratioP2;P2;SDS_P1;SDS_P2;PMS_P1;PMS_P2;Temp;Humidity;BMP_temperature;BMP_pressure;BME280_temperature;BME280_humidity;BME280_pressure;Samples;Min_cycle;Max_cycle;Signal;HPM_P1;HPM_P2
2022/05/22 00:02:02;;;;;;;0.40;0.20;;;;;;;14.26;64.07;99849.40;103627;1275;107849;-65
2022/05/22 00:04:31;;;;;;;0.40;0.30;;;;;;;14.19;64.33;99848.98;103509;1277;138416;-67
2022/05/22 00:06:59;;;;;;;0.40;0.20;;;;;;;14.19;64.14;99843.81;103559;1274;95632;-66
2022/05/22 00:09:30;;;;;;;0.40;0.20;;;;;;;14.20;64.17;99844.86;103654;1277;109634;-68
2022/05/22 00:11:58;;;;;;;0.40;0.20;;;;;;;14.23;64.16;99841.16;103492;1278;139678;-67
2022/05/22 00:14:26;;;;;;;0.40;0.20;;;;;;;14.19;64.22;99838.83;103950;1277;107835;-67
2022/05/22 00:16:55;;;;;;;0.40;0.30;;;;;;;14.13;64.34;99838.42;103468;1277;139330;-65
2022/05/22 00:19:26;;;;;;;0.40;0.30;;;;;;;14.12;64.44;99837.92;103602;1278;95961;-67
2022/05/22 00:21:55;;;;;;;0.40;0.20;;;;;;;14.14;64.41;99836.23;103442;1277;139576;-67
2022/05/22 00:24:25;;;;;;;0.40;0.30;;;;;;;14.19;64.19;99835.28;103692;1277;99740;-67
2022/05/22 00:26:53;;;;;;;0.40;0.30;;;;;;;14.17;64.09;99838.19;103539;1275;107519;-67
2022/05/22 00:29:23;;;;;;;0.40;0.30;;;;;;;14.19;63.99;99835.63;103449;1277;139093;-68
2022/05/22 00:31:50;;;;;;;0.40;0.30;;;;;;;14.22;63.89;99833.35;103535;1276;96608;-68
2022/05/22 00:34:19;;;;;;;0.40;0.20;;;;;;;14.21;63.83;99832.48;103473;1275;138632;-64
2022/05/22 00:36:47;;;;;;;0.40;0.20;;;;;;;14.19;63.81;99833.46;103637;1277;99496;-69
2022/05/22 00:39:16;;;;;;;0.40;0.20;;;;;;;14.12;63.92;99835.41;103665;1277;106974;-67
2022/05/22 00:41:53;;;;;;;0.40;0.20;;;;;;;14.06;64.05;99834.30;103470;1277;139369;-65
2022/05/22 00:44:21;;;;;;;0.40;0.20;;;;;;;14.04;63.97;99837.27;104101;1277;95885;-66
2022/05/22 00:46:50;;;;;;;0.40;0.20;;;;;;;14.03;64.02;99837.83;103417;1277;139034;-66
2022/05/22 00:49:24;;;;;;;0.40;0.20;;;;;;;14.00;64.03;99837.12;103719;1278;98849;-66
2022/05/22 00:51:57;;;;;;;0.40;0.20;;;;;;;14.02;64.00;99838.27;103671;1277;140880;-66
2022/05/22 00:54:42;;;;;;;0.40;0.30;;;;;;;14.02;64.07;99841.64;103555;1277;95692;-67
2022/05/22 00:57:22;;;;;;;0.40;0.20;;;;;;;14.05;63.95;99836.34;103648;1275;95697;-66
2022/05/22 00:59:55;;;;;;;0.40;0.30;;;;;;;14.04;63.93;99838.48;103545;1276;138139;-68
2022/05/22 01:02:24;;;;;;;0.40;0.20;;;;;;;14.02;63.94;99834.28;104219;1275;99610;-67
2022/05/22 01:04:52;;;;;;;0.40;0.30;;;;;;;14.04;63.78;99832.45;104000;1276;138837;-65
2022/05/22 01:07:20;;;;;;;0.40;0.20;;;;;;;14.08;63.65;99835.44;103735;1277;96062;-65
2022/05/22 01:09:49;;;;;;;0.40;0.20;;;;;;;14.10;63.46;99835.55;103600;1277;139546;-65
2022/05/22 01:12:22;;;;;;;0.40;0.30;;;;;;;14.08;63.39;99835.12;103687;1277;108682;-67
2022/05/22 01:14:54;;;;;;;0.40;0.30;;;;;;;14.07;63.36;99830.33;103615;1277;99459;-66
2022/05/22 01:17:22;;;;;;;0.40;0.20;;;;;;;14.08;63.27;99833.66;103754;1277;138852;-66
2022/05/22 01:19:59;;;;;;;0.40;0.20;;;;;;;14.06;63.24;99833.95;103572;1277;96119;-66
2022/05/22 01:22:28;;;;;;;0.40;0.30;;;;;;;14.05;63.10;99838.62;103489;1277;138361;-66
2022/05/22 01:24:57;;;;;;;0.40;0.30;;;;;;;14.04;63.14;99836.36;103580;1277;109876;-65
2022/05/22 01:27:27;;;;;;;0.40;0.30;;;;;;;14.01;62.99;99841.90;104625;1277;99351;-66
2022/05/22 01:30:24;;;;;;;0.40;0.30;;;;;;;14.01;62.99;99847.39;103783;1275;111060;-65
2022/05/22 01:33:00;;;;;;;0.40;0.30;;;;;;;14.02;62.95;99846.98;103557;1277;95808;-66
2022/05/22 01:35:29;;;;;;;0.40;0.30;;;;;;;13.94;62.55;99845.23;103454;1277;138156;-66
2022/05/22 01:38:00;;;;;;;0.40;0.30;;;;;;;13.86;62.56;99848.51;103647;1277;108782;-65
2022/05/22 01:40:28;;;;;;;0.40;0.30;;;;;;;13.89;62.56;99844.63;103414;1277;140114;-66
2022/05/22 01:42:56;;;;;;;0.40;0.30;;;;;;;13.93;62.38;99849.96;103725;1277;108833;-66
2022/05/22 01:45:26;;;;;;;0.40;0.30;;;;;;;13.82;62.01;99849.23;103760;1277;95246;-67
2022/05/22 01:47:55;;;;;;;0.40;0.30;;;;;;;13.76;62.08;99851.48;103701;1275;138178;-65
2022/05/22 01:50:34;;;;;;;0.40;0.30;;;;;;;13.70;62.23;99852.81;103797;1277;109406;-64
2022/05/22 01:53:02;;;;;;;0.40;0.30;;;;;;;13.72;62.16;99853.63;103748;1275;139079;-67
2022/05/22 01:55:31;;;;;;;0.40;0.30;;;;;;;13.67;61.97;99852.06;103722;1277;109016;-64
2022/05/22 01:58:00;;;;;;;0.40;0.30;;;;;;;13.62;62.07;99855.88;103574;1275;138530;-65
2022/05/22 02:00:30;;;;;;;0.40;0.30;;;;;;;13.59;62.31;99853.16;103717;1275;95504;-65
2022/05/22 02:02:59;;;;;;;0.40;0.30;;;;;;;13.58;62.19;99855.73;103689;1277;108396;-64
2022/05/22 02:05:35;;;;;;;0.40;0.30;;;;;;;13.64;62.15;99858.98;103556;1277;139305;-65
2022/05/22 02:08:19;;;;;;;0.40;0.30;;;;;;;13.66;61.82;99858.55;103576;1275;108733;-65
2022/05/22 02:11:10;;;;;;;0.40;0.30;;;;;;;13.62;61.98;99859.83;103488;1276;139326;-66
2022/05/22 02:13:44;;;;;;;0.40;0.30;;;;;;;13.60;61.98;99861.16;103699;1277;95664;-66
2022/05/22 02:16:12;;;;;;;0.40;0.30;;;;;;;13.62;61.78;99859.81;103760;1277;139475;-67
2022/05/22 02:18:41;;;;;;;0.40;0.30;;;;;;;13.66;61.67;99863.04;103731;1277;99736;-64
2022/05/22 02:21:10;;;;;;;0.40;0.30;;;;;;;13.65;61.58;99857.34;103543;1277;106757;-65
2022/05/22 02:23:38;;;;;;;0.40;0.30;;;;;;;13.65;61.54;99857.55;103554;1277;138712;-65
2022/05/22 02:26:11;;;;;;;0.40;0.30;;;;;;;13.61;61.61;99858.95;103601;1277;95265;-65
2022/05/22 02:28:40;;;;;;;0.40;0.30;;;;;;;13.59;61.70;99860.68;103560;1277;138898;-65
2022/05/22 02:31:08;;;;;;;0.40;0.30;;;;;;;13.58;61.74;99859.45;103590;1277;98845;-65
2022/05/22 02:33:37;;;;;;;0.40;0.30;;;;;;;13.57;61.86;99862.55;103681;1277;108921;-66
2022/05/22 02:36:10;;;;;;;0.40;0.30;;;;;;;13.59;61.92;99858.91;103755;1277;138441;-66
2022/05/22 02:38:39;;;;;;;0.40;0.30;;;;;;;13.60;61.91;99856.52;103845;1275;96246;-66
2022/05/22 02:41:15;;;;;;;0.40;0.20;;;;;;;13.66;61.90;99858.21;103641;1277;139055;-64
2022/05/22 02:43:52;;;;;;;0.40;0.30;;;;;;;13.68;61.83;99862.55;103662;1277;99433;-66
2022/05/22 02:46:21;;;;;;;0.40;0.30;;;;;;;13.66;61.83;99859.98;103591;1277;138659;-66
2022/05/22 02:48:51;;;;;;;0.40;0.30;;;;;;;13.65;62.04;99859.88;103602;1277;96211;-66
2022/05/22 02:51:25;;;;;;;0.40;0.30;;;;;;;13.67;61.90;99853.14;103594;1277;95134;-63
2022/05/22 02:53:54;;;;;;;0.40;0.30;;;;;;;13.68;61.97;99854.48;104093;1276;139287;-65
2022/05/22 02:56:30;;;;;;;0.40;0.30;;;;;;;13.66;61.99;99856.05;103595;1277;99398;-66
2022/05/22 02:59:17;;;;;;;0.40;0.40;;;;;;;13.62;62.24;99859.98;103529;1277;138863;-65
2022/05/22 03:02:05;;;;;;;0.40;0.30;;;;;;;13.60;62.39;99863.30;103404;1276;95535;-65
2022/05/22 03:04:35;;;;;;;0.40;0.30;;;;;;;13.59;62.48;99859.63;103443;1277;138773;-66
2022/05/22 03:07:12;;;;;;;0.40;0.30;;;;;;;13.58;62.54;99865.52;103620;1277;109768;-65
2022/05/22 03:09:42;;;;;;;0.40;0.30;;;;;;;13.62;62.48;99865.86;103953;1277;99324;-65
2022/05/22 03:12:14;;;;;;;0.40;0.30;;;;;;;13.55;62.69;99866.73;103672;1277;109888;-65
2022/05/22 03:14:48;;;;;;;0.40;0.30;;;;;;;13.55;62.59;99865.52;103665;1277;95749;-65
2022/05/22 03:17:17;;;;;;;0.40;0.30;;;;;;;13.55;62.54;99866.55;103644;1277;138363;-66
2022/05/22 03:19:52;;;;;;;0.40;0.30;;;;;;;13.60;62.53;99865.45;103643;1277;108641;-66
2022/05/22 03:22:21;;;;;;;0.40;0.30;;;;;;;13.57;62.40;99867.19;103535;1277;138481;-65
2022/05/22 03:24:51;;;;;;;0.40;0.30;;;;;;;13.59;62.42;99869.23;103821;1277;109398;-64
2022/05/22 03:27:21;;;;;;;0.40;0.30;;;;;;;13.67;62.37;99869.75;103554;1277;95303;-65
2022/05/22 03:29:51;;;;;;;0.40;0.30;;;;;;;13.71;61.89;99870.43;103706;1277;138600;-66
2022/05/22 03:32:19;;;;;;;0.40;0.20;;;;;;;13.73;61.85;99867.16;104136;1273;110037;-66
2022/05/22 03:34:52;;;;;;;0.40;0.30;;;;;;;13.70;61.99;99869.41;103561;1277;138855;-65
2022/05/22 03:37:20;;;;;;;0.40;0.30;;;;;;;13.69;62.28;99869.64;103610;1277;108776;-66
2022/05/22 03:39:48;;;;;;;0.40;0.30;;;;;;;13.71;62.41;99868.14;103472;1277;139868;-65
2022/05/22 03:42:16;;;;;;;0.40;0.30;;;;;;;13.75;62.42;99873.09;103675;1277;95936;-64
2022/05/22 03:44:44;;;;;;;0.40;0.30;;;;;;;13.83;62.28;99872.73;103635;1277;109677;-65
2022/05/22 03:47:13;;;;;;;0.40;0.30;;;;;;;13.77;62.40;99871.20;103712;1276;138746;-65
2022/05/22 03:50:12;;;;;;;0.40;0.20;;;;;;;13.78;62.66;99868.00;103618;1276;108948;-65
2022/05/22 03:52:43;;;;;;;0.40;0.30;;;;;;;13.77;62.52;99868.35;104216;1277;139048;-67
2022/05/22 03:55:23;;;;;;;0.40;0.30;;;;;;;13.68;62.77;99872.34;103719;1277;95428;-66
2022/05/22 03:57:51;;;;;;;0.40;0.30;;;;;;;13.63;62.95;99870.27;103348;1277;289452;-65
2022/05/22 04:00:21;;;;;;;0.40;0.30;;;;;;;13.62;63.03;99870.36;103706;1277;99559;-65
2022/05/22 04:02:51;;;;;;;0.40;0.30;;;;;;;13.59;63.07;99871.76;103701;1277;109499;-65
2022/05/22 04:05:20;;;;;;;0.40;0.30;;;;;;;13.66;62.96;99874.42;103647;1277;139644;-66
2022/05/22 04:07:50;;;;;;;0.40;0.30;;;;;;;13.63;63.05;99876.17;103751;1277;95785;-66
2022/05/22 04:10:26;;;;;;;0.40;0.30;;;;;;;13.57;63.20;99878.98;103475;1277;138926;-66
2022/05/22 04:12:54;;;;;;;0.40;0.30;;;;;;;13.59;63.26;99880.50;103919;1277;98362;-66
2022/05/22 04:15:23;;;;;;;0.40;0.30;;;;;;;13.56;63.36;99882.73;103622;1277;108952;-67
2022/05/22 04:17:54;;;;;;;0.40;0.20;;;;;;;13.53;63.56;99885.75;104165;1275;138767;-64
2022/05/22 04:20:24;;;;;;;0.40;0.30;;;;;;;13.54;63.46;99888.53;103595;1274;95227;-67
2022/05/22 04:25:58;;;;;;;0.40;0.30;;;;;;;13.45;63.67;99881.65;103654;1277;99481;-65
2022/05/22 04:28:28;;;;;;;0.40;0.20;;;;;;;13.42;63.76;99884.83;103620;1277;139169;-66
2022/05/22 04:31:04;;;;;;;0.40;0.20;;;;;;;13.38;63.69;99883.21;103633;1275;95514;-66
2022/05/22 04:33:38;;;;;;;0.40;0.30;;;;;;;13.32;63.88;99882.04;104140;1277;95827;-68
2022/05/22 04:36:06;;;;;;;0.40;0.30;;;;;;;13.27;64.09;99883.51;103715;1277;139204;-65
2022/05/22 04:38:34;;;;;;;0.40;0.30;;;;;;;13.32;64.03;99884.55;103795;1277;99768;-66
2022/05/22 04:41:03;;;;;;;0.40;0.30;;;;;;;13.34;64.06;99881.58;103458;1276;138697;-65
2022/05/22 04:43:32;;;;;;;0.40;0.30;;;;;;;13.30;64.14;99880.35;103727;1275;95664;-66
2022/05/22 04:46:07;;;;;;;0.40;0.30;;;;;;;13.26;64.28;99878.42;103973;1274;138645;-66
2022/05/22 04:48:35;;;;;;;0.40;0.30;;;;;;;13.30;64.30;99874.45;103545;1277;108463;-65
2022/05/22 04:51:05;;;;;;;0.40;0.30;;;;;;;13.37;64.09;99881.66;103937;1275;99427;-66
2022/05/22 04:53:54;;;;;;;0.40;0.30;;;;;;;13.45;63.73;99876.85;103499;1274;138508;-66
2022/05/22 04:56:38;;;;;;;0.40;0.30;;;;;;;13.52;63.84;99877.40;103663;1275;95169;-66
2022/05/22 04:59:15;;;;;;;0.40;0.30;;;;;;;13.52;63.46;99882.06;103584;1274;139122;-65
2022/05/22 05:01:43;;;;;;;0.40;0.30;;;;;;;13.43;63.59;99882.98;103659;1276;109310;-66
2022/05/22 05:04:14;;;;;;;0.40;0.30;;;;;;;13.42;63.96;99888.39;103570;1276;139680;-65
2022/05/22 05:06:48;;;;;;;0.40;0.20;;;;;;;13.43;63.85;99885.86;103601;1277;108710;-65
2022/05/22 05:09:42;;;;;;;0.40;0.20;;;;;;;13.48;63.96;99889.55;103668;1276;95217;-65
2022/05/22 05:12:15;;;;;;;0.40;0.30;;;;;;;13.47;63.78;99892.27;103702;1277;95225;-66
2022/05/22 05:14:45;;;;;;;0.40;0.30;;;;;;;13.44;63.86;99897.39;103653;1277;109707;-66
2022/05/22 05:17:15;;;;;;;0.40;0.20;;;;;;;13.46;63.93;99891.77;103516;1277;139638;-66
2022/05/22 05:19:45;;;;;;;0.40;0.30;;;;;;;13.51;63.81;99894.94;103921;1277;108827;-65
2022/05/22 05:22:15;;;;;;;0.40;0.30;;;;;;;13.49;63.64;99892.89;103549;1277;138756;-66
2022/05/22 05:24:43;;;;;;;0.40;0.30;;;;;;;13.49;63.69;99891.65;103623;1277;95844;-65
2022/05/22 05:27:11;;;;;;;0.40;0.30;;;;;;;13.47;63.73;99891.75;103641;1277;109662;-64
2022/05/22 05:30:09;;;;;;;0.40;0.30;;;;;;;13.47;63.77;99891.36;103590;1274;139249;-66
2022/05/22 05:32:41;;;;;;;0.40;0.30;;;;;;;13.47;63.79;99893.32;104048;1277;108823;-65
2022/05/22 05:35:15;;;;;;;0.40;0.30;;;;;;;13.53;63.70;99892.34;103675;1275;138727;-66
2022/05/22 05:37:43;;;;;;;0.40;0.30;;;;;;;13.54;63.61;99892.65;103646;1277;95646;-67
2022/05/22 05:40:17;;;;;;;0.40;0.30;;;;;;;13.58;63.62;99890.51;103535;1277;139527;-66
2022/05/22 05:42:45;;;;;;;0.40;0.30;;;;;;;13.66;63.54;99889.23;103737;1277;99985;-66
2022/05/22 05:45:15;;;;;;;0.40;0.20;;;;;;;13.78;63.40;99889.20;103612;1277;108792;-67
2022/05/22 05:47:54;;;;;;;0.40;0.30;;;;;;;13.89;62.82;99889.39;104098;1274;138383;-66
2022/05/22 05:50:32;;;;;;;0.40;0.20;;;;;;;13.95;62.47;99889.64;103718;1277;95535;-67
2022/05/22 05:53:23;;;;;;;0.40;0.20;;;;;;;13.99;62.05;99890.17;103593;1277;138934;-66
2022/05/22 05:56:04;;;;;;;0.40;0.20;;;;;;;14.08;61.89;99890.82;103710;1277;99295;-66
2022/05/22 05:59:14;;;;;;;0.40;0.20;;;;;;;14.14;61.77;99890.14;103390;1276;137975;-67
2022/05/22 06:01:48;;;;;;;0.40;0.20;;;;;;;14.18;61.47;99888.16;103603;1277;95234;-67
2022/05/22 06:04:17;;;;;;;0.40;0.20;;;;;;;14.23;61.53;99888.80;103587;1274;138641;-69
2022/05/22 06:06:46;;;;;;;0.40;0.20;;;;;;;14.29;61.47;99889.58;103849;1277;110125;-67
2022/05/22 06:09:14;;;;;;;0.40;0.20;;;;;;;14.37;60.92;99890.41;103693;1277;99578;-67
2022/05/22 06:12:03;;;;;;;0.40;0.20;;;;;;;14.35;60.85;99893.75;103478;1277;137981;-68
2022/05/22 06:14:37;;;;;;;0.40;0.30;;;;;;;14.33;60.99;99889.77;103591;1277;95341;-65
2022/05/22 06:17:05;;;;;;;0.40;0.20;;;;;;;14.31;60.76;99892.89;103563;1277;139303;-67
2022/05/22 06:19:57;;;;;;;0.40;0.20;;;;;;;14.22;60.82;99898.70;103853;1277;109650;-66
2022/05/22 06:22:51;;;;;;;0.40;0.20;;;;;;;14.26;61.04;99896.89;103452;1277;139224;-66
2022/05/22 06:25:44;;;;;;;0.40;0.20;;;;;;;14.34;60.92;99894.67;103673;1276;108983;-63
2022/05/22 06:28:31;;;;;;;0.40;0.20;;;;;;;14.50;60.56;99900.12;103541;1277;139144;-67
2022/05/22 06:31:12;;;;;;;0.40;0.20;;;;;;;14.60;60.18;99896.79;103577;1277;95840;-67
2022/05/22 06:33:50;;;;;;;0.40;0.20;;;;;;;14.71;60.00;99893.20;103549;1274;138810;-67
2022/05/22 06:36:47;;;;;;;0.40;0.20;;;;;;;14.90;59.70;99887.41;103152;1277;99266;-67
2022/05/22 06:39:51;;;;;;;0.40;0.20;;;;;;;14.99;59.10;99886.60;103660;1277;108714;-67
2022/05/22 06:43:01;;;;;;;0.40;0.20;;;;;;;15.00;58.81;99888.86;103300;1280;95405;-68
2022/05/22 06:45:50;;;;;;;0.40;0.20;;;;;;;15.00;58.38;99888.48;103583;1280;138686;-67
2022/05/22 06:48:44;;;;;;;0.40;0.20;;;;;;;15.18;58.36;99889.16;103358;1271;109742;-67
2022/05/22 06:51:27;;;;;;;0.40;0.20;;;;;;;15.17;58.17;99889.35;103683;1277;100163;-66
2022/05/22 06:54:08;;;;;;;0.40;0.20;;;;;;;15.06;58.05;99890.34;103687;1277;138160;-66
2022/05/22 06:56:42;;;;;;;0.40;0.20;;;;;;;14.90;58.16;99892.04;103595;1277;95267;-65
2022/05/22 06:59:30;;;;;;;0.40;0.20;;;;;;;14.79;58.77;99894.41;103550;1276;138435;-67
2022/05/22 07:02:30;;;;;;;0.40;0.20;;;;;;;14.76;58.65;99897.42;103609;1275;108140;-67
2022/05/22 07:05:12;;;;;;;0.40;0.20;;;;;;;14.77;58.56;99897.72;103728;1277;138729;-67
2022/05/22 07:07:49;;;;;;;0.40;0.20;;;;;;;14.86;57.78;99898.53;103618;1277;108771;-69
2022/05/22 07:13:41;;;;;;;0.40;0.20;;;;;;;15.04;56.82;99894.70;103595;1277;95252;-67
2022/05/22 07:16:38;;;;;;;0.40;0.20;;;;;;;14.99;56.51;99896.77;103321;1277;138506;-67
2022/05/22 07:19:30;;;;;;;0.40;0.20;;;;;;;14.98;56.29;99890.20;103586;1277;99332;-65
2022/05/22 07:22:01;;;;;;;0.40;0.20;;;;;;;14.90;56.23;99896.50;103649;1274;138164;-67
2022/05/22 07:24:46;;;;;;;0.40;0.20;;;;;;;14.91;56.79;99897.75;103615;1277;96492;-68
2022/05/22 07:27:28;;;;;;;0.40;0.20;;;;;;;15.02;56.55;99898.03;103745;1277;95136;-66
2022/05/22 07:30:33;;;;;;;0.40;0.20;;;;;;;15.16;56.73;99898.71;103230;1281;110147;-67
2022/05/22 07:33:14;;;;;;;0.40;0.20;;;;;;;15.28;55.97;99899.88;103602;1277;99393;-67
2022/05/22 07:35:59;;;;;;;0.40;0.20;;;;;;;15.32;55.37;99896.61;103627;1275;138721;-67
2022/05/22 07:38:40;;;;;;;0.40;0.20;;;;;;;15.36;54.66;99900.17;103658;1277;95590;-66
2022/05/22 07:41:39;;;;;;;0.40;0.20;;;;;;;15.30;54.81;99906.60;103581;1277;138980;-67
2022/05/22 07:44:14;;;;;;;0.40;0.20;;;;;;;15.18;54.98;99908.29;103755;1274;109698;-66
2022/05/22 07:46:50;;;;;;;0.40;0.20;;;;;;;15.14;55.05;99904.05;103697;1276;138876;-66
2022/05/22 07:52:53;;;;;;;0.40;0.20;;;;;;;15.36;55.66;99905.02;103256;1277;138760;-68
2022/05/22 07:55:24;;;;;;;0.40;0.20;;;;;;;15.56;54.94;99900.70;103683;1277;95736;-66
2022/05/22 07:58:21;;;;;;;0.40;0.20;;;;;;;15.69;54.48;99901.40;103588;1277;138613;-67
2022/05/22 08:01:16;;;;;;;0.40;0.20;;;;;;;15.82;54.04;99900.35;103555;1277;99312;-66
2022/05/22 08:04:02;;;;;;;0.40;0.20;;;;;;;16.01;54.00;99903.23;103671;1274;138740;-66
2022/05/22 08:07:03;;;;;;;0.40;0.20;;;;;;;16.15;53.12;99904.41;103912;1276;95726;-67
2022/05/22 08:09:45;;;;;;;0.40;0.20;;;;;;;16.36;53.28;99903.20;103585;1277;138910;-66
2022/05/22 08:12:13;;;;;;;0.40;0.20;;;;;;;16.52;52.02;99908.16;103718;1277;109662;-66
2022/05/22 08:14:41;;;;;;;0.40;0.20;;;;;;;16.58;51.87;99908.73;103564;1277;99357;-68
2022/05/22 08:17:09;;;;;;;0.40;0.20;;;;;;;16.67;51.62;99904.08;103625;1276;138143;-66
2022/05/22 08:19:38;;;;;;;0.40;0.20;;;;;;;16.70;51.53;99906.75;103819;1277;96097;-65
2022/05/22 08:22:19;;;;;;;0.40;0.20;;;;;;;16.77;51.22;99907.04;103510;1277;139038;-66
2022/05/22 08:25:07;;;;;;;0.40;0.20;;;;;;;16.75;50.68;99907.33;103690;1277;109741;-66
2022/05/22 08:27:38;;;;;;;0.40;0.20;;;;;;;16.67;51.10;99904.79;103953;1277;98601;-66
2022/05/22 08:30:09;;;;;;;0.40;0.10;;;;;;;16.70;51.39;99910.17;103792;1274;138611;-66
2022/05/22 08:32:39;;;;;;;0.40;0.20;;;;;;;16.67;51.53;99909.10;103775;1276;95924;-66
2022/05/22 08:35:10;;;;;;;0.40;0.20;;;;;;;16.64;51.27;99906.96;103510;1276;138321;-67
2022/05/22 08:37:38;;;;;;;0.40;0.20;;;;;;;16.72;50.78;99904.88;103811;1277;110219;-66
2022/05/22 08:40:09;;;;;;;0.40;0.20;;;;;;;16.79;50.68;99899.60;104082;1276;138422;-66
2022/05/22 08:42:45;;;;;;;0.40;0.20;;;;;;;16.95;50.98;99892.41;103893;1274;109070;-66
2022/05/22 08:45:35;;;;;;;0.40;0.20;;;;;;;17.10;50.81;99890.96;103722;1277;95736;-67
2022/05/22 08:48:14;;;;;;;0.40;0.20;;;;;;;17.25;50.19;99886.41;103880;1277;138799;-67
2022/05/22 08:50:45;;;;;;;0.40;0.20;;;;;;;17.28;50.20;99883.73;103814;1277;110005;-67
2022/05/22 08:53:37;;;;;;;0.40;0.20;;;;;;;17.22;49.70;99889.48;103699;1277;138811;-65
2022/05/22 08:59:07;;;;;;;0.40;0.10;;;;;;;17.26;48.68;99889.61;103581;1276;138398;-67
2022/05/22 09:01:48;;;;;;;0.40;0.20;;;;;;;17.30;49.82;99894.40;103644;1275;95227;-65
2022/05/22 09:04:40;;;;;;;0.40;0.10;;;;;;;17.50;50.05;99883.23;103682;1277;138212;-67
2022/05/22 09:07:53;;;;;;;0.40;0.20;;;;;;;17.55;49.20;99881.14;103609;1274;99583;-67
2022/05/22 09:10:58;;;;;;;0.40;0.20;;;;;;;17.51;47.23;99887.83;103105;1280;138853;-66
2022/05/22 09:13:35;;;;;;;0.40;0.20;;;;;;;17.79;47.18;99893.06;104005;1274;95231;-65
2022/05/22 09:17:01;;;;;;;0.40;0.20;;;;;;;17.70;45.49;99894.54;103335;1275;138596;-65
2022/05/22 09:19:42;;;;;;;0.40;0.20;;;;;;;17.85;45.69;99885.88;102506;1283;109712;-66
2022/05/22 09:22:24;;;;;;;0.40;0.20;;;;;;;18.62;44.48;99882.27;104543;1282;138463;-67
2022/05/22 09:25:13;;;;;;;0.40;0.10;;;;;;;19.26;43.26;99879.31;103085;1274;107759;-67
2022/05/22 09:27:52;;;;;;;0.40;0.10;;;;;;;18.95;43.35;99876.45;104081;1274;95248;-66
2022/05/22 09:30:34;;;;;;;0.40;0.10;;;;;;;19.00;43.82;99879.16;103621;1274;95218;-66
2022/05/22 09:33:20;;;;;;;0.40;0.20;;;;;;;20.00;40.76;99876.66;103074;1274;110289;-66
2022/05/22 09:35:59;;;;;;;0.40;0.10;;;;;;;21.66;37.54;99876.02;102883;1274;138433;-66
2022/05/22 09:38:46;;;;;;;0.40;0.10;;;;;;;22.22;36.07;99876.94;103120;1274;109717;-66
2022/05/22 09:41:20;;;;;;;0.40;0.10;;;;;;;21.53;37.58;99882.16;103431;1274;138796;-66
2022/05/22 09:43:54;;;;;;;0.40;0.10;;;;;;;20.93;38.07;99886.29;103830;1274;96508;-66
2022/05/22 09:46:45;;;;;;;0.40;0.10;;;;;;;20.85;39.04;99884.70;103276;1274;139136;-67
2022/05/22 09:49:40;;;;;;;0.40;0.10;;;;;;;22.20;35.98;99877.77;103599;1274;99433;-66
2022/05/22 09:52:22;;;;;;;0.40;0.10;;;;;;;23.60;33.14;99877.05;103402;1276;138759;-69
2022/05/22 09:55:08;;;;;;;0.40;0.10;;;;;;;24.48;31.99;99874.14;103573;1274;96373;-66
2022/05/22 09:58:01;;;;;;;0.40;0.10;;;;;;;25.53;30.84;99876.21;103597;1274;95412;-67
2022/05/22 10:00:35;;;;;;;0.40;0.10;;;;;;;26.56;29.28;99869.71;103720;1274;110155;-66
2022/05/22 10:03:09;;;;;;;0.40;0.00;;;;;;;27.09;27.69;99866.86;103491;1274;99038;-66
2022/05/22 10:05:54;;;;;;;0.40;0.00;;;;;;;27.29;27.10;99865.99;103677;1274;138756;-67
2022/05/22 10:08:43;;;;;;;0.40;0.00;;;;;;;26.39;27.36;99869.52;103660;1274;95253;-65
2022/05/22 10:11:15;;;;;;;0.40;0.00;;;;;;;24.81;29.97;99874.68;105463;1275;138949;-67
2022/05/22 10:14:08;;;;;;;0.40;0.00;;;;;;;23.51;31.94;99880.90;103664;1274;109709;-66
2022/05/22 10:16:45;;;;;;;0.40;0.10;;;;;;;22.49;34.23;99887.10;103339;1275;138968;-66
2022/05/22 10:19:27;;;;;;;0.40;0.10;;;;;;;22.00;35.45;99879.83;103392;1277;107819;-66
2022/05/22 10:22:24;;;;;;;0.40;0.10;;;;;;;23.18;33.47;99872.94;103538;1274;138951;-66
2022/05/22 10:25:26;;;;;;;0.40;0.10;;;;;;;24.46;31.04;99870.88;103549;1275;95116;-67
2022/05/22 10:28:02;;;;;;;0.40;0.00;;;;;;;25.26;29.71;99867.23;103445;1274;139314;-66
2022/05/22 10:30:42;;;;;;;0.40;0.00;;;;;;;24.49;30.27;99866.95;103705;1274;99931;-66
2022/05/22 10:33:14;;;;;;;0.40;0.00;;;;;;;23.60;31.52;99862.32;103752;1277;108779;-68
2022/05/22 10:36:05;;;;;;;0.40;0.00;;;;;;;23.03;32.72;99868.59;103458;1277;138390;-70
2022/05/22 10:38:48;;;;;;;0.40;0.00;;;;;;;22.44;33.34;99871.46;103493;1274;95438;-66
2022/05/22 10:44:28;;;;;;;0.40;0.00;;;;;;;21.36;34.23;99871.23;103561;1275;99378;-66
2022/05/22 10:46:59;;;;;;;0.40;0.10;;;;;;;20.79;35.15;99875.30;103454;1277;140544;-66
2022/05/22 10:49:43;;;;;;;0.40;0.10;;;;;;;20.36;36.13;99879.05;103617;1277;96078;-66
2022/05/22 10:52:22;;;;;;;0.40;0.10;;;;;;;19.88;36.81;99878.27;103511;1274;138787;-66
2022/05/22 10:54:53;;;;;;;0.40;0.10;;;;;;;19.53;37.80;99875.94;103838;1277;109755;-67
2022/05/22 10:57:25;;;;;;;0.40;0.10;;;;;;;19.47;38.67;99877.98;103490;1274;99539;-66
2022/05/22 10:59:54;;;;;;;0.40;0.10;;;;;;;19.38;38.92;99877.90;103904;1276;138562;-67
2022/05/22 11:02:31;;;;;;;0.40;0.10;;;;;;;19.29;39.22;99880.87;103752;1274;95229;-67
2022/05/22 11:04:59;;;;;;;0.40;0.10;;;;;;;19.18;39.61;99879.09;103311;1277;139023;-66
2022/05/22 11:07:31;;;;;;;0.40;0.10;;;;;;;19.07;39.34;99883.16;103444;1276;109826;-66
2022/05/22 11:10:16;;;;;;;0.40;0.10;;;;;;;19.05;39.51;99883.48;103569;1274;138688;-66
2022/05/22 11:12:44;;;;;;;0.40;0.10;;;;;;;18.98;39.09;99882.83;103981;1274;109044;-65
2022/05/22 11:15:27;;;;;;;0.40;0.10;;;;;;;18.91;39.24;99884.64;103445;1274;95742;-67
2022/05/22 11:18:23;;;;;;;0.40;0.10;;;;;;;18.95;39.20;99884.53;103677;1275;138217;-67
2022/05/22 11:21:20;;;;;;;0.40;0.10;;;;;;;19.09;39.23;99888.92;103844;1273;109731;31
2022/05/22 11:24:15;;;;;;;0.40;0.10;;;;;;;19.06;38.97;99884.34;104172;1279;138066;-76
2022/05/22 11:26:42;;;;;;;0.40;0.10;;;;;;;18.76;39.36;99889.75;104237;1279;107867;-76
2022/05/22 11:29:10;;;;;;;0.40;0.10;;;;;;;18.49;39.93;99890.13;104073;1279;138458;-77
2022/05/22 11:32:01;;;;;;;0.40;0.10;;;;;;;18.21;40.92;99896.11;104178;1279;95219;-76
2022/05/22 11:34:54;;;;;;;0.40;0.10;;;;;;;17.98;41.63;99904.48;104074;1279;138445;-76
2022/05/22 11:37:52;;;;;;;0.40;0.20;;;;;;;17.84;42.01;99903.70;104267;1279;99784;-76
2022/05/22 11:40:25;;;;;;;0.40;0.10;;;;;;;17.86;42.69;99904.61;103881;1279;140946;-76
2022/05/22 11:43:08;;;;;;;0.40;0.20;;;;;;;17.93;42.56;99902.30;104263;1278;95556;-75
2022/05/22 11:46:04;;;;;;;0.40;0.10;;;;;;;18.03;42.66;99899.48;104508;1279;96832;-75
2022/05/22 11:48:50;;;;;;;0.40;0.10;;;;;;;18.14;42.55;99901.25;104433;1280;110379;-76
2022/05/22 11:51:59;;;;;;;0.40;0.10;;;;;;;18.31;42.50;99901.77;104260;1279;99683;-74
2022/05/22 11:54:48;;;;;;;0.40;0.10;;;;;;;18.39;42.10;99900.30;104363;1279;108944;-76
2022/05/22 11:58:00;;;;;;;0.40;0.10;;;;;;;18.56;42.03;99900.84;97680;1271;121742;-92
2022/05/22 12:00:46;;;;;;;0.40;0.10;;;;;;;18.53;41.92;99905.89;105803;1279;95224;-91
2022/05/22 12:03:46;;;;;;;0.40;0.10;;;;;;;18.40;42.50;99903.85;105611;1279;109690;-89
2022/05/22 12:06:44;;;;;;;0.40;0.10;;;;;;;18.24;41.57;99908.33;106096;1280;96444;-88
2022/05/22 12:09:50;;;;;;;0.40;0.10;;;;;;;18.18;41.50;99905.27;106545;1278;107571;-89
2022/05/22 12:13:14;;;;;;;0.40;0.10;;;;;;;18.36;41.70;99900.88;105714;1278;95264;-88
2022/05/22 12:16:16;;;;;;;0.40;0.10;;;;;;;18.50;41.38;99901.23;105445;1279;140079;-87
2022/05/22 12:19:08;;;;;;;0.40;0.10;;;;;;;18.42;40.77;99906.95;105324;1279;107744;-90
2022/05/22 12:22:01;;;;;;;0.40;0.10;;;;;;;18.33;41.63;99902.50;105596;1278;99847;-90
2022/05/22 12:25:20;;;;;;;0.40;0.10;;;;;;;18.36;41.98;99902.12;106769;1278;107400;-88
2022/05/22 12:28:23;;;;;;;0.40;0.20;;;;;;;18.48;41.76;99905.98;106536;1280;138430;-89